Portland Hillsboro Airport
KHIO : now visible

Airfield :











YOU CAN JOIN US ON...

 
LOGIN :

Register | Disclaimer

   EN    FR    IT 

 









Legend :    VFR   Marginal VFR   IFR   Intensive IFR   Very Intensive IFR
Visi :
Ceiling :
>= 8 km
>= 3000ft
5 to 8 km
1000 to 3000 ft
1500m to 5 km
500 to 1000 ft
800 to 1500m
200 to 500 ft
< 800m
< 200 ft
Symbols :   Thunderstorms  Fog  Heavy snow  Heavy precipitations  Wind > 20 kt






- Airport Elevation : 208 ft


KHIO - Portland Hillsboro

CURRENT METAR :
  • 041453Z 09012G18KT 10SM FEW055 BKN090 OVC110 04/M06 A2991 RMK AO2 SLP130 T00391056 55004

EXPIRED METARs :
  • 041353Z 08008G17KT 10SM SCT080 BKN090 03/M05 A2991 RMK AO2 SLP130 T00331050
  • 041253Z 08011G22KT 10SM CLR 04/M06 A2992 RMK AO2 SLP133 T00391056

TAF KHIO
Valid from the 04 at 12:00 until the 05 at 12:00 UTC


041131Z 0412/0512 07015G23KT P6SM SCT060 OVC100
FM041600 08011KT 5SM -SN BKN028 OVC050
FM041900 08007KT 3SM -SNRA BKN015 OVC030
FM042200 10006KT 2SM -RASN BKN008 OVC015
FM050700 VRB03KT 1SM BR BKN004 OVC012
KZSE FIR / North America



MET'MAP, your aeronautical weather chart ! - Copyright ORBIFLY December 2007 - Disclaimer

ORBIFLY MET'MAP TEAM :

Programming & Development : Alexandra Zaïnal
Original concept : Baudouin d'Aumeries
Technical & hardware support : Manuel Goepfert
Assistance : Marc-Olivier Méhu




SOURCES & CREDITS :

   NOAA       Earth
Advisory